Porto Santo Airport Vila Baleira PT
ICAO: LPPS
IATA: PXO
Category: Medium
Scheduled Services: Yes

Elevation: 341 ft
TransAlt. 5000 ft.

Airport Communications:
GCA:123.3
TWR:118.4

LPPS Zoom In..

If you have problems with the map follow the link
https://www.worldairports.se/pages/airport.php?
ICAO=LPPS

Runways:

(A) RW 18 length 7871 ft width 148 ft
---- / hdg 184

(B) RW 36 length 7871 ft width 148 ft
---- / hdg 4

Location; LPPS
Day. 18 / Time. 21.30 Zulu
* QNH: 1028
* Temperature: 16° c. 60.8°f.
* Wind from: 020° Speed 09 kn.
Dewpoint: 10° c.
Visibility: 10 km or more.
Clouds: Few 1500 ft.
Clouds: Broken 3000 ft.

LPPS 182130Z 02009KT 350V050 9999 FEW015 BKN030 16/10 Q1028


Wind From 020°
Speed 09 kn.

 
 
jpsmedia.com for Web Design worldairports.se 2019   terms of use